sensor_id;sensor_type;location;lat;lon;timestamp;P1;durP1;ratioP1;P2;durP2;ratioP2
28834;SDS011;15969;51.536;11.884;2022-12-04T00:01:03;68.93;;;33.37;;
28834;SDS011;15969;51.536;11.884;2022-12-04T00:03:31;74.40;;;35.40;;
28834;SDS011;15969;51.536;11.884;2022-12-04T00:06:07;72.80;;;32.37;;
28834;SDS011;15969;51.536;11.884;2022-12-04T00:08:36;68.07;;;31.80;;
28834;SDS011;15969;51.536;11.884;2022-12-04T00:11:03;72.33;;;33.37;;
28834;SDS011;15969;51.536;11.884;2022-12-04T00:13:31;76.37;;;35.50;;
28834;SDS011;15969;51.536;11.884;2022-12-04T00:15:57;71.73;;;33.90;;
28834;SDS011;15969;51.536;11.884;2022-12-04T00:18:23;74.00;;;32.97;;
28834;SDS011;15969;51.536;11.884;2022-12-04T00:20:49;74.43;;;32.90;;
28834;SDS011;15969;51.536;11.884;2022-12-04T00:23:15;76.20;;;33.23;;
28834;SDS011;15969;51.536;11.884;2022-12-04T00:25:41;70.37;;;33.27;;
28834;SDS011;15969;51.536;11.884;2022-12-04T00:28:12;69.87;;;34.07;;
28834;SDS011;15969;51.536;11.884;2022-12-04T00:30:43;76.93;;;35.27;;
28834;SDS011;15969;51.536;11.884;2022-12-04T00:33:10;73.83;;;33.13;;
28834;SDS011;15969;51.536;11.884;2022-12-04T00:35:37;76.20;;;34.40;;
28834;SDS011;15969;51.536;11.884;2022-12-04T00:38:03;77.43;;;34.13;;
28834;SDS011;15969;51.536;11.884;2022-12-04T00:40:29;72.70;;;35.70;;
28834;SDS011;15969;51.536;11.884;2022-12-04T00:42:55;72.87;;;33.63;;
28834;SDS011;15969;51.536;11.884;2022-12-04T00:45:20;72.07;;;32.77;;
28834;SDS011;15969;51.536;11.884;2022-12-04T00:47:46;69.23;;;33.97;;
28834;SDS011;15969;51.536;11.884;2022-12-04T00:50:12;69.97;;;34.07;;
28834;SDS011;15969;51.536;11.884;2022-12-04T00:52:37;73.07;;;34.83;;
28834;SDS011;15969;51.536;11.884;2022-12-04T00:55:03;74.43;;;33.47;;
28834;SDS011;15969;51.536;11.884;2022-12-04T00:57:29;72.17;;;34.60;;
28834;SDS011;15969;51.536;11.884;2022-12-04T00:59:55;69.80;;;33.83;;
28834;SDS011;15969;51.536;11.884;2022-12-04T01:02:21;70.87;;;34.23;;
28834;SDS011;15969;51.536;11.884;2022-12-04T01:04:46;71.93;;;34.57;;
28834;SDS011;15969;51.536;11.884;2022-12-04T01:07:12;73.70;;;32.90;;
28834;SDS011;15969;51.536;11.884;2022-12-04T01:09:38;69.03;;;32.70;;
28834;SDS011;15969;51.536;11.884;2022-12-04T01:12:04;65.63;;;33.43;;
28834;SDS011;15969;51.536;11.884;2022-12-04T01:14:30;74.27;;;33.23;;
28834;SDS011;15969;51.536;11.884;2022-12-04T01:16:56;77.17;;;33.90;;
28834;SDS011;15969;51.536;11.884;2022-12-04T01:19:21;73.33;;;34.50;;
28834;SDS011;15969;51.536;11.884;2022-12-04T01:21:47;75.97;;;33.67;;
28834;SDS011;15969;51.536;11.884;2022-12-04T01:24:13;70.23;;;33.30;;
28834;SDS011;15969;51.536;11.884;2022-12-04T01:26:39;76.23;;;33.70;;
28834;SDS011;15969;51.536;11.884;2022-12-04T01:29:05;71.90;;;35.13;;
28834;SDS011;15969;51.536;11.884;2022-12-04T01:31:31;70.73;;;34.03;;
28834;SDS011;15969;51.536;11.884;2022-12-04T01:33:56;71.00;;;34.50;;
28834;SDS011;15969;51.536;11.884;2022-12-04T01:36:23;70.43;;;33.43;;
28834;SDS011;15969;51.536;11.884;2022-12-04T01:38:52;76.67;;;35.60;;
28834;SDS011;15969;51.536;11.884;2022-12-04T01:41:20;70.00;;;33.60;;
28834;SDS011;15969;51.536;11.884;2022-12-04T01:44:08;66.53;;;33.20;;
28834;SDS011;15969;51.536;11.884;2022-12-04T01:46:36;68.13;;;33.33;;
28834;SDS011;15969;51.536;11.884;2022-12-04T01:49:04;68.30;;;33.37;;
28834;SDS011;15969;51.536;11.884;2022-12-04T01:51:38;66.70;;;32.93;;
28834;SDS011;15969;51.536;11.884;2022-12-04T01:54:10;69.20;;;33.87;;
28834;SDS011;15969;51.536;11.884;2022-12-04T01:59:12;72.40;;;34.87;;
28834;SDS011;15969;51.536;11.884;2022-12-04T02:02:02;73.10;;;35.10;;
28834;SDS011;15969;51.536;11.884;2022-12-04T02:04:33;73.93;;;35.90;;
28834;SDS011;15969;51.536;11.884;2022-12-04T02:07:00;66.70;;;32.60;;
28834;SDS011;15969;51.536;11.884;2022-12-04T02:09:26;72.97;;;35.83;;
28834;SDS011;15969;51.536;11.884;2022-12-04T02:12:09;69.27;;;33.50;;
28834;SDS011;15969;51.536;11.884;2022-12-04T02:17:27;73.97;;;33.90;;
28834;SDS011;15969;51.536;11.884;2022-12-04T02:20:18;74.07;;;34.20;;
28834;SDS011;15969;51.536;11.884;2022-12-04T02:23:24;68.20;;;33.17;;
28834;SDS011;15969;51.536;11.884;2022-12-04T02:34:58;64.73;;;33.20;;
28834;SDS011;15969;51.536;11.884;2022-12-04T02:37:34;71.97;;;34.17;;
28834;SDS011;15969;51.536;11.884;2022-12-04T02:43:26;68.60;;;33.83;;
28834;SDS011;15969;51.536;11.884;2022-12-04T02:45:41;68.70;;;33.93;;
28834;SDS011;15969;51.536;11.884;2022-12-04T02:48:12;65.40;;;33.13;;
28834;SDS011;15969;51.536;11.884;2022-12-04T02:50:43;61.87;;;33.80;;
28834;SDS011;15969;51.536;11.884;2022-12-04T02:53:14;66.90;;;33.53;;
28834;SDS011;15969;51.536;11.884;2022-12-04T02:55:46;69.83;;;34.13;;
28834;SDS011;15969;51.536;11.884;2022-12-04T02:58:24;73.67;;;35.17;;
28834;SDS011;15969;51.536;11.884;2022-12-04T03:00:58;72.10;;;33.97;;
28834;SDS011;15969;51.536;11.884;2022-12-04T03:03:28;72.10;;;35.57;;
28834;SDS011;15969;51.536;11.884;2022-12-04T03:05:59;71.43;;;33.87;;
28834;SDS011;15969;51.536;11.884;2022-12-04T03:08:32;65.70;;;33.97;;
28834;SDS011;15969;51.536;11.884;2022-12-04T03:11:06;69.20;;;35.03;;
28834;SDS011;15969;51.536;11.884;2022-12-04T03:13:40;67.73;;;33.27;;
28834;SDS011;15969;51.536;11.884;2022-12-04T03:16:34;68.83;;;35.47;;
28834;SDS011;15969;51.536;11.884;2022-12-04T03:21:44;73.47;;;35.13;;
28834;SDS011;15969;51.536;11.884;2022-12-04T03:26:50;62.97;;;34.57;;
28834;SDS011;15969;51.536;11.884;2022-12-04T03:29:38;74.30;;;36.20;;
28834;SDS011;15969;51.536;11.884;2022-12-04T03:32:12;69.93;;;34.47;;
28834;SDS011;15969;51.536;11.884;2022-12-04T03:35:02;71.17;;;35.37;;
28834;SDS011;15969;51.536;11.884;2022-12-04T03:40:17;69.80;;;34.87;;
28834;SDS011;15969;51.536;11.884;2022-12-04T03:43:11;72.77;;;33.07;;
28834;SDS011;15969;51.536;11.884;2022-12-04T03:45:51;70.30;;;35.20;;
28834;SDS011;15969;51.536;11.884;2022-12-04T03:48:24;81.10;;;36.83;;
28834;SDS011;15969;51.536;11.884;2022-12-04T03:50:59;72.60;;;36.53;;
28834;SDS011;15969;51.536;11.884;2022-12-04T03:53:43;76.47;;;36.17;;
28834;SDS011;15969;51.536;11.884;2022-12-04T03:56:46;73.73;;;36.03;;
28834;SDS011;15969;51.536;11.884;2022-12-04T03:59:22;78.30;;;38.00;;
28834;SDS011;15969;51.536;11.884;2022-12-04T04:01:56;71.10;;;34.83;;
28834;SDS011;15969;51.536;11.884;2022-12-04T04:04:27;79.53;;;37.10;;
28834;SDS011;15969;51.536;11.884;2022-12-04T04:06:58;72.43;;;38.80;;
28834;SDS011;15969;51.536;11.884;2022-12-04T04:09:37;74.00;;;37.83;;
28834;SDS011;15969;51.536;11.884;2022-12-04T04:12:06;73.13;;;37.00;;
28834;SDS011;15969;51.536;11.884;2022-12-04T04:14:50;80.83;;;38.77;;
28834;SDS011;15969;51.536;11.884;2022-12-04T04:17:40;74.13;;;36.73;;
28834;SDS011;15969;51.536;11.884;2022-12-04T04:23:29;78.70;;;38.10;;
28834;SDS011;15969;51.536;11.884;2022-12-04T04:26:18;76.60;;;36.90;;
28834;SDS011;15969;51.536;11.884;2022-12-04T04:28:46;72.60;;;36.97;;
28834;SDS011;15969;51.536;11.884;2022-12-04T04:34:39;79.00;;;37.83;;
28834;SDS011;15969;51.536;11.884;2022-12-04T04:40:23;73.50;;;36.83;;
28834;SDS011;15969;51.536;11.884;2022-12-04T04:43:15;69.03;;;35.80;;
28834;SDS011;15969;51.536;11.884;2022-12-04T04:45:51;75.30;;;37.83;;
28834;SDS011;15969;51.536;11.884;2022-12-04T04:48:30;76.83;;;38.63;;
28834;SDS011;15969;51.536;11.884;2022-12-04T04:50:59;80.63;;;37.63;;
28834;SDS011;15969;51.536;11.884;2022-12-04T04:53:34;76.23;;;38.50;;
28834;SDS011;15969;51.536;11.884;2022-12-04T04:56:05;74.37;;;37.27;;
28834;SDS011;15969;51.536;11.884;2022-12-04T04:58:32;69.50;;;36.60;;
28834;SDS011;15969;51.536;11.884;2022-12-04T05:00:59;85.67;;;39.03;;
28834;SDS011;15969;51.536;11.884;2022-12-04T05:03:32;81.17;;;39.47;;
28834;SDS011;15969;51.536;11.884;2022-12-04T05:05:58;84.20;;;41.27;;
28834;SDS011;15969;51.536;11.884;2022-12-04T05:08:25;85.13;;;40.93;;
28834;SDS011;15969;51.536;11.884;2022-12-04T05:10:50;89.17;;;41.83;;
28834;SDS011;15969;51.536;11.884;2022-12-04T05:13:17;84.20;;;40.23;;
28834;SDS011;15969;51.536;11.884;2022-12-04T05:15:43;91.43;;;42.90;;
28834;SDS011;15969;51.536;11.884;2022-12-04T05:18:09;79.17;;;39.87;;
28834;SDS011;15969;51.536;11.884;2022-12-04T05:20:38;94.13;;;42.00;;
28834;SDS011;15969;51.536;11.884;2022-12-04T05:23:04;88.30;;;41.60;;
28834;SDS011;15969;51.536;11.884;2022-12-04T05:25:31;93.97;;;42.50;;
28834;SDS011;15969;51.536;11.884;2022-12-04T05:27:57;88.33;;;41.70;;
28834;SDS011;15969;51.536;11.884;2022-12-04T05:30:23;89.77;;;41.90;;
28834;SDS011;15969;51.536;11.884;2022-12-04T05:32:48;90.93;;;41.80;;
28834;SDS011;15969;51.536;11.884;2022-12-04T05:35:14;93.07;;;42.40;;
28834;SDS011;15969;51.536;11.884;2022-12-04T05:37:40;96.97;;;44.33;;
28834;SDS011;15969;51.536;11.884;2022-12-04T05:40:06;90.00;;;42.50;;
28834;SDS011;15969;51.536;11.884;2022-12-04T05:42:33;96.73;;;44.70;;
28834;SDS011;15969;51.536;11.884;2022-12-04T05:44:58;88.17;;;42.07;;
28834;SDS011;15969;51.536;11.884;2022-12-04T05:47:24;87.83;;;42.63;;
28834;SDS011;15969;51.536;11.884;2022-12-04T05:49:50;82.57;;;41.37;;
28834;SDS011;15969;51.536;11.884;2022-12-04T05:52:16;89.40;;;41.50;;
28834;SDS011;15969;51.536;11.884;2022-12-04T05:54:41;87.90;;;43.63;;
28834;SDS011;15969;51.536;11.884;2022-12-04T05:57:07;88.90;;;42.40;;
28834;SDS011;15969;51.536;11.884;2022-12-04T05:59:33;91.93;;;43.10;;
28834;SDS011;15969;51.536;11.884;2022-12-04T06:01:59;96.03;;;42.90;;
28834;SDS011;15969;51.536;11.884;2022-12-04T06:04:24;90.30;;;42.93;;
28834;SDS011;15969;51.536;11.884;2022-12-04T06:06:51;84.93;;;42.70;;
28834;SDS011;15969;51.536;11.884;2022-12-04T06:09:18;89.07;;;43.60;;
28834;SDS011;15969;51.536;11.884;2022-12-04T06:11:44;93.53;;;42.20;;
28834;SDS011;15969;51.536;11.884;2022-12-04T06:14:11;91.90;;;44.53;;
28834;SDS011;15969;51.536;11.884;2022-12-04T06:16:40;85.77;;;41.30;;
28834;SDS011;15969;51.536;11.884;2022-12-04T06:19:10;91.27;;;43.53;;
28834;SDS011;15969;51.536;11.884;2022-12-04T06:21:42;84.60;;;42.73;;
28834;SDS011;15969;51.536;11.884;2022-12-04T06:24:21;85.23;;;43.67;;
28834;SDS011;15969;51.536;11.884;2022-12-04T06:26:48;97.77;;;43.97;;
28834;SDS011;15969;51.536;11.884;2022-12-04T06:29:15;90.23;;;43.83;;
28834;SDS011;15969;51.536;11.884;2022-12-04T06:31:41;89.50;;;43.17;;
28834;SDS011;15969;51.536;11.884;2022-12-04T06:34:07;83.80;;;44.23;;
28834;SDS011;15969;51.536;11.884;2022-12-04T06:36:34;83.90;;;42.27;;
28834;SDS011;15969;51.536;11.884;2022-12-04T06:39:01;87.80;;;44.63;;
28834;SDS011;15969;51.536;11.884;2022-12-04T06:41:27;83.77;;;41.77;;
28834;SDS011;15969;51.536;11.884;2022-12-04T06:43:53;84.37;;;42.00;;
28834;SDS011;15969;51.536;11.884;2022-12-04T06:46:20;90.57;;;43.53;;
28834;SDS011;15969;51.536;11.884;2022-12-04T06:48:49;84.57;;;43.13;;
28834;SDS011;15969;51.536;11.884;2022-12-04T06:51:20;81.13;;;40.30;;
28834;SDS011;15969;51.536;11.884;2022-12-04T06:53:52;86.57;;;42.53;;
28834;SDS011;15969;51.536;11.884;2022-12-04T06:56:19;86.47;;;42.80;;
28834;SDS011;15969;51.536;11.884;2022-12-04T06:58:48;91.03;;;42.90;;
28834;SDS011;15969;51.536;11.884;2022-12-04T07:01:18;82.60;;;42.50;;
28834;SDS011;15969;51.536;11.884;2022-12-04T07:03:47;83.37;;;43.50;;
28834;SDS011;15969;51.536;11.884;2022-12-04T07:06:14;88.37;;;41.80;;
28834;SDS011;15969;51.536;11.884;2022-12-04T07:08:46;87.80;;;43.40;;
28834;SDS011;15969;51.536;11.884;2022-12-04T07:11:15;81.77;;;42.43;;
28834;SDS011;15969;51.536;11.884;2022-12-04T07:13:42;90.60;;;43.07;;
28834;SDS011;15969;51.536;11.884;2022-12-04T07:16:08;94.37;;;44.80;;
28834;SDS011;15969;51.536;11.884;2022-12-04T07:18:37;87.57;;;42.80;;
28834;SDS011;15969;51.536;11.884;2022-12-04T07:21:04;86.53;;;42.33;;
28834;SDS011;15969;51.536;11.884;2022-12-04T07:23:32;86.27;;;43.63;;
28834;SDS011;15969;51.536;11.884;2022-12-04T07:26:02;88.37;;;46.03;;
28834;SDS011;15969;51.536;11.884;2022-12-04T07:28:30;88.13;;;43.63;;
28834;SDS011;15969;51.536;11.884;2022-12-04T07:30:56;91.63;;;43.23;;
28834;SDS011;15969;51.536;11.884;2022-12-04T07:33:22;86.40;;;43.17;;
28834;SDS011;15969;51.536;11.884;2022-12-04T07:35:57;85.40;;;42.60;;
28834;SDS011;15969;51.536;11.884;2022-12-04T07:38:25;82.70;;;41.53;;
28834;SDS011;15969;51.536;11.884;2022-12-04T07:40:51;88.73;;;44.63;;
28834;SDS011;15969;51.536;11.884;2022-12-04T07:43:20;88.80;;;45.77;;
28834;SDS011;15969;51.536;11.884;2022-12-04T07:45:46;93.83;;;45.37;;
28834;SDS011;15969;51.536;11.884;2022-12-04T07:48:11;90.97;;;45.10;;
28834;SDS011;15969;51.536;11.884;2022-12-04T07:50:37;90.07;;;44.30;;
28834;SDS011;15969;51.536;11.884;2022-12-04T07:53:03;86.00;;;42.40;;
28834;SDS011;15969;51.536;11.884;2022-12-04T07:55:28;93.57;;;44.30;;
28834;SDS011;15969;51.536;11.884;2022-12-04T07:57:54;88.07;;;43.50;;
28834;SDS011;15969;51.536;11.884;2022-12-04T08:00:20;87.00;;;43.03;;
28834;SDS011;15969;51.536;11.884;2022-12-04T08:02:45;89.57;;;44.10;;
28834;SDS011;15969;51.536;11.884;2022-12-04T08:05:11;78.60;;;41.70;;
28834;SDS011;15969;51.536;11.884;2022-12-04T08:07:37;82.67;;;42.17;;
28834;SDS011;15969;51.536;11.884;2022-12-04T08:10:03;93.23;;;44.10;;
28834;SDS011;15969;51.536;11.884;2022-12-04T08:12:30;83.70;;;41.70;;
28834;SDS011;15969;51.536;11.884;2022-12-04T08:14:57;90.07;;;43.40;;
28834;SDS011;15969;51.536;11.884;2022-12-04T08:17:23;85.53;;;43.17;;
28834;SDS011;15969;51.536;11.884;2022-12-04T08:19:49;93.30;;;45.53;;
28834;SDS011;15969;51.536;11.884;2022-12-04T08:22:14;79.90;;;42.40;;
28834;SDS011;15969;51.536;11.884;2022-12-04T08:24:40;87.77;;;44.30;;
28834;SDS011;15969;51.536;11.884;2022-12-04T08:27:06;83.83;;;41.70;;
28834;SDS011;15969;51.536;11.884;2022-12-04T08:29:32;94.37;;;49.73;;
28834;SDS011;15969;51.536;11.884;2022-12-04T08:31:57;97.30;;;51.07;;
28834;SDS011;15969;51.536;11.884;2022-12-04T08:34:23;86.03;;;43.70;;
28834;SDS011;15969;51.536;11.884;2022-12-04T08:36:49;86.37;;;44.07;;
28834;SDS011;15969;51.536;11.884;2022-12-04T08:39:15;81.27;;;40.93;;
28834;SDS011;15969;51.536;11.884;2022-12-04T08:41:41;88.93;;;43.90;;
28834;SDS011;15969;51.536;11.884;2022-12-04T08:44:07;80.70;;;42.63;;
28834;SDS011;15969;51.536;11.884;2022-12-04T08:46:33;94.40;;;44.37;;
28834;SDS011;15969;51.536;11.884;2022-12-04T08:48:59;84.77;;;43.07;;
28834;SDS011;15969;51.536;11.884;2022-12-04T08:51:27;80.30;;;41.43;;
28834;SDS011;15969;51.536;11.884;2022-12-04T08:53:56;88.07;;;44.73;;
28834;SDS011;15969;51.536;11.884;2022-12-04T08:56:24;83.83;;;43.87;;
28834;SDS011;15969;51.536;11.884;2022-12-04T08:58:51;82.33;;;43.33;;
28834;SDS011;15969;51.536;11.884;2022-12-04T09:01:19;84.07;;;43.33;;
28834;SDS011;15969;51.536;11.884;2022-12-04T09:03:45;81.33;;;42.20;;
28834;SDS011;15969;51.536;11.884;2022-12-04T09:06:12;84.97;;;42.43;;
28834;SDS011;15969;51.536;11.884;2022-12-04T09:08:40;83.33;;;43.20;;
28834;SDS011;15969;51.536;11.884;2022-12-04T09:11:08;85.23;;;44.57;;
28834;SDS011;15969;51.536;11.884;2022-12-04T09:13:37;81.93;;;42.27;;
28834;SDS011;15969;51.536;11.884;2022-12-04T09:16:05;76.83;;;44.40;;
28834;SDS011;15969;51.536;11.884;2022-12-04T09:18:34;82.53;;;41.20;;
28834;SDS011;15969;51.536;11.884;2022-12-04T09:21:02;82.53;;;42.60;;
28834;SDS011;15969;51.536;11.884;2022-12-04T09:23:30;86.60;;;44.83;;
28834;SDS011;15969;51.536;11.884;2022-12-04T09:25:58;83.03;;;46.50;;
28834;SDS011;15969;51.536;11.884;2022-12-04T09:28:24;78.03;;;42.20;;
28834;SDS011;15969;51.536;11.884;2022-12-04T09:30:56;81.90;;;44.43;;
28834;SDS011;15969;51.536;11.884;2022-12-04T09:33:30;80.83;;;41.27;;
28834;SDS011;15969;51.536;11.884;2022-12-04T09:36:00;82.20;;;43.80;;
28834;SDS011;15969;51.536;11.884;2022-12-04T09:38:28;86.40;;;43.73;;
28834;SDS011;15969;51.536;11.884;2022-12-04T09:46:47;79.43;;;41.47;;
28834;SDS011;15969;51.536;11.884;2022-12-04T09:49:26;85.93;;;43.30;;
28834;SDS011;15969;51.536;11.884;2022-12-04T09:55:13;77.93;;;41.70;;
28834;SDS011;15969;51.536;11.884;2022-12-04T09:57:48;87.20;;;43.43;;
28834;SDS011;15969;51.536;11.884;2022-12-04T10:00:19;77.67;;;41.27;;
28834;SDS011;15969;51.536;11.884;2022-12-04T10:03:02;80.17;;;41.30;;
28834;SDS011;15969;51.536;11.884;2022-12-04T10:08:30;89.60;;;41.87;;
28834;SDS011;15969;51.536;11.884;2022-12-04T10:11:05;83.47;;;43.77;;
28834;SDS011;15969;51.536;11.884;2022-12-04T10:13:59;85.20;;;45.00;;
28834;SDS011;15969;51.536;11.884;2022-12-04T10:19:28;87.60;;;44.80;;
28834;SDS011;15969;51.536;11.884;2022-12-04T10:22:36;86.20;;;43.30;;
28834;SDS011;15969;51.536;11.884;2022-12-04T10:25:37;82.17;;;41.63;;
28834;SDS011;15969;51.536;11.884;2022-12-04T10:28:18;95.57;;;50.07;;
28834;SDS011;15969;51.536;11.884;2022-12-04T10:30:51;84.63;;;43.93;;
28834;SDS011;15969;51.536;11.884;2022-12-04T10:33:34;88.90;;;43.13;;
28834;SDS011;15969;51.536;11.884;2022-12-04T10:36:07;84.67;;;41.93;;
28834;SDS011;15969;51.536;11.884;2022-12-04T10:38:48;84.93;;;43.10;;
28834;SDS011;15969;51.536;11.884;2022-12-04T10:44:38;85.70;;;42.97;;
28834;SDS011;15969;51.536;11.884;2022-12-04T10:47:04;83.10;;;43.33;;
28834;SDS011;15969;51.536;11.884;2022-12-04T10:49:31;82.73;;;42.90;;
28834;SDS011;15969;51.536;11.884;2022-12-04T10:51:59;92.67;;;46.97;;
28834;SDS011;15969;51.536;11.884;2022-12-04T10:54:36;107.50;;;53.77;;
28834;SDS011;15969;51.536;11.884;2022-12-04T10:57:06;123.00;;;61.70;;
28834;SDS011;15969;51.536;11.884;2022-12-04T10:59:37;231.27;;;125.20;;
28834;SDS011;15969;51.536;11.884;2022-12-04T11:04:56;97.73;;;50.20;;
28834;SDS011;15969;51.536;11.884;2022-12-04T11:07:28;115.97;;;64.47;;
28834;SDS011;15969;51.536;11.884;2022-12-04T11:10:19;111.93;;;58.60;;
28834;SDS011;15969;51.536;11.884;2022-12-04T11:12:56;106.73;;;54.50;;
28834;SDS011;15969;51.536;11.884;2022-12-04T11:15:29;92.00;;;46.03;;
28834;SDS011;15969;51.536;11.884;2022-12-04T11:18:12;88.43;;;45.13;;
28834;SDS011;15969;51.536;11.884;2022-12-04T11:20:51;97.67;;;47.50;;
28834;SDS011;15969;51.536;11.884;2022-12-04T11:23:28;96.03;;;47.40;;
28834;SDS011;15969;51.536;11.884;2022-12-04T11:26:07;87.60;;;45.10;;
28834;SDS011;15969;51.536;11.884;2022-12-04T11:28:34;91.07;;;45.57;;
28834;SDS011;15969;51.536;11.884;2022-12-04T11:31:04;95.70;;;45.17;;
28834;SDS011;15969;51.536;11.884;2022-12-04T11:33:39;99.07;;;48.83;;
28834;SDS011;15969;51.536;11.884;2022-12-04T11:36:30;97.83;;;47.63;;
28834;SDS011;15969;51.536;11.884;2022-12-04T11:44:49;91.37;;;45.30;;
28834;SDS011;15969;51.536;11.884;2022-12-04T11:47:39;97.93;;;45.43;;
28834;SDS011;15969;51.536;11.884;2022-12-04T11:50:18;101.03;;;47.27;;
28834;SDS011;15969;51.536;11.884;2022-12-04T11:53:13;94.60;;;45.33;;
28834;SDS011;15969;51.536;11.884;2022-12-04T12:02:14;104.37;;;49.77;;
28834;SDS011;15969;51.536;11.884;2022-12-04T12:08:07;99.13;;;44.70;;
28834;SDS011;15969;51.536;11.884;2022-12-04T12:10:51;90.40;;;43.63;;
28834;SDS011;15969;51.536;11.884;2022-12-04T12:13:49;100.87;;;46.97;;
28834;SDS011;15969;51.536;11.884;2022-12-04T12:34:39;89.20;;;42.27;;
28834;SDS011;15969;51.536;11.884;2022-12-04T12:37:10;84.53;;;42.10;;
28834;SDS011;15969;51.536;11.884;2022-12-04T12:40:05;87.23;;;42.73;;
28834;SDS011;15969;51.536;11.884;2022-12-04T12:42:48;86.97;;;44.90;;
28834;SDS011;15969;51.536;11.884;2022-12-04T12:45:38;92.73;;;44.17;;
28834;SDS011;15969;51.536;11.884;2022-12-04T12:48:56;97.97;;;46.50;;
28834;SDS011;15969;51.536;11.884;2022-12-04T12:57:13;85.07;;;42.90;;
28834;SDS011;15969;51.536;11.884;2022-12-04T12:59:48;93.63;;;44.33;;
28834;SDS011;15969;51.536;11.884;2022-12-04T13:02:25;96.40;;;46.20;;
28834;SDS011;15969;51.536;11.884;2022-12-04T13:04:56;107.43;;;52.13;;
28834;SDS011;15969;51.536;11.884;2022-12-04T13:10:19;85.37;;;43.90;;
28834;SDS011;15969;51.536;11.884;2022-12-04T13:12:52;85.83;;;43.00;;
28834;SDS011;15969;51.536;11.884;2022-12-04T13:15:25;89.03;;;43.77;;
28834;SDS011;15969;51.536;11.884;2022-12-04T13:18:37;102.50;;;47.37;;
28834;SDS011;15969;51.536;11.884;2022-12-04T13:21:29;99.43;;;45.40;;
28834;SDS011;15969;51.536;11.884;2022-12-04T13:30:23;93.00;;;43.77;;
28834;SDS011;15969;51.536;11.884;2022-12-04T13:33:21;95.20;;;42.87;;
28834;SDS011;15969;51.536;11.884;2022-12-04T13:42:00;85.47;;;42.37;;
28834;SDS011;15969;51.536;11.884;2022-12-04T13:44:29;89.60;;;41.57;;
28834;SDS011;15969;51.536;11.884;2022-12-04T13:46:59;84.13;;;41.87;;
28834;SDS011;15969;51.536;11.884;2022-12-04T13:49:36;85.67;;;41.10;;
28834;SDS011;15969;51.536;11.884;2022-12-04T13:52:23;87.13;;;42.87;;
28834;SDS011;15969;51.536;11.884;2022-12-04T13:55:20;88.37;;;42.87;;
28834;SDS011;15969;51.536;11.884;2022-12-04T13:57:57;92.47;;;42.63;;
28834;SDS011;15969;51.536;11.884;2022-12-04T14:00:58;91.87;;;43.50;;
28834;SDS011;15969;51.536;11.884;2022-12-04T14:03:45;83.93;;;40.47;;
28834;SDS011;15969;51.536;11.884;2022-12-04T14:06:23;88.43;;;42.23;;
28834;SDS011;15969;51.536;11.884;2022-12-04T14:08:59;91.47;;;42.27;;
28834;SDS011;15969;51.536;11.884;2022-12-04T14:11:31;91.77;;;42.53;;
28834;SDS011;15969;51.536;11.884;2022-12-04T14:14:22;89.47;;;42.87;;
28834;SDS011;15969;51.536;11.884;2022-12-04T14:16:52;91.47;;;43.80;;
28834;SDS011;15969;51.536;11.884;2022-12-04T14:19:35;86.60;;;42.77;;
28834;SDS011;15969;51.536;11.884;2022-12-04T14:22:05;92.47;;;42.40;;
28834;SDS011;15969;51.536;11.884;2022-12-04T14:25:03;96.03;;;45.17;;
28834;SDS011;15969;51.536;11.884;2022-12-04T14:27:48;91.37;;;40.97;;
28834;SDS011;15969;51.536;11.884;2022-12-04T14:32:53;87.00;;;43.70;;
28834;SDS011;15969;51.536;11.884;2022-12-04T14:35:30;96.20;;;44.27;;
28834;SDS011;15969;51.536;11.884;2022-12-04T14:37:58;90.37;;;41.53;;
28834;SDS011;15969;51.536;11.884;2022-12-04T14:40:27;88.70;;;43.07;;
28834;SDS011;15969;51.536;11.884;2022-12-04T14:43:14;83.20;;;40.67;;
28834;SDS011;15969;51.536;11.884;2022-12-04T14:51:21;86.33;;;42.73;;
28834;SDS011;15969;51.536;11.884;2022-12-04T14:56:39;83.77;;;41.63;;
28834;SDS011;15969;51.536;11.884;2022-12-04T14:59:21;86.67;;;42.10;;
28834;SDS011;15969;51.536;11.884;2022-12-04T15:01:58;81.63;;;42.00;;
28834;SDS011;15969;51.536;11.884;2022-12-04T15:04:25;83.97;;;39.60;;
28834;SDS011;15969;51.536;11.884;2022-12-04T15:06:55;87.53;;;41.10;;
28834;SDS011;15969;51.536;11.884;2022-12-04T15:09:22;82.20;;;41.43;;
28834;SDS011;15969;51.536;11.884;2022-12-04T15:12:13;87.63;;;41.00;;
28834;SDS011;15969;51.536;11.884;2022-12-04T15:14:58;79.40;;;38.90;;
28834;SDS011;15969;51.536;11.884;2022-12-04T15:17:58;85.43;;;41.73;;
28834;SDS011;15969;51.536;11.884;2022-12-04T15:20:26;89.07;;;40.97;;
28834;SDS011;15969;51.536;11.884;2022-12-04T15:23:00;85.93;;;41.57;;
28834;SDS011;15969;51.536;11.884;2022-12-04T15:25:27;82.73;;;39.63;;
28834;SDS011;15969;51.536;11.884;2022-12-04T15:28:05;83.03;;;40.60;;
28834;SDS011;15969;51.536;11.884;2022-12-04T15:30:50;78.30;;;40.50;;
28834;SDS011;15969;51.536;11.884;2022-12-04T15:33:19;85.63;;;40.63;;
28834;SDS011;15969;51.536;11.884;2022-12-04T15:35:55;83.50;;;40.57;;
28834;SDS011;15969;51.536;11.884;2022-12-04T15:38:42;87.13;;;41.23;;
28834;SDS011;15969;51.536;11.884;2022-12-04T15:41:28;82.60;;;40.27;;
28834;SDS011;15969;51.536;11.884;2022-12-04T15:44:00;81.63;;;39.33;;
28834;SDS011;15969;51.536;11.884;2022-12-04T15:46:43;85.47;;;40.90;;
28834;SDS011;15969;51.536;11.884;2022-12-04T15:49:15;96.40;;;43.03;;
28834;SDS011;15969;51.536;11.884;2022-12-04T15:51:44;89.70;;;41.53;;
28834;SDS011;15969;51.536;11.884;2022-12-04T15:54:18;86.60;;;40.53;;
28834;SDS011;15969;51.536;11.884;2022-12-04T15:56:59;86.23;;;39.87;;
28834;SDS011;15969;51.536;11.884;2022-12-04T15:59:31;84.77;;;41.47;;
28834;SDS011;15969;51.536;11.884;2022-12-04T16:02:03;86.10;;;41.17;;
28834;SDS011;15969;51.536;11.884;2022-12-04T16:04:47;90.07;;;41.87;;
28834;SDS011;15969;51.536;11.884;2022-12-04T16:07:27;84.17;;;40.50;;
28834;SDS011;15969;51.536;11.884;2022-12-04T16:09:55;86.50;;;39.83;;
28834;SDS011;15969;51.536;11.884;2022-12-04T16:12:27;91.53;;;40.97;;
28834;SDS011;15969;51.536;11.884;2022-12-04T16:14:55;79.10;;;39.80;;
28834;SDS011;15969;51.536;11.884;2022-12-04T16:17:22;90.93;;;41.23;;
28834;SDS011;15969;51.536;11.884;2022-12-04T16:19:54;86.07;;;42.23;;
28834;SDS011;15969;51.536;11.884;2022-12-04T16:22:21;91.13;;;43.03;;
28834;SDS011;15969;51.536;11.884;2022-12-04T16:24:49;84.80;;;42.17;;
28834;SDS011;15969;51.536;11.884;2022-12-04T16:27:16;81.37;;;39.47;;
28834;SDS011;15969;51.536;11.884;2022-12-04T16:29:46;84.90;;;40.23;;
28834;SDS011;15969;51.536;11.884;2022-12-04T16:32:14;87.80;;;40.63;;
28834;SDS011;15969;51.536;11.884;2022-12-04T16:34:42;84.33;;;40.33;;
28834;SDS011;15969;51.536;11.884;2022-12-04T16:37:09;80.87;;;40.57;;
28834;SDS011;15969;51.536;11.884;2022-12-04T16:39:37;89.13;;;40.67;;
28834;SDS011;15969;51.536;11.884;2022-12-04T16:42:04;82.10;;;40.43;;